Time;durP1;ratioP1;P1;durP2;ratioP2;P2;SDS_P1;SDS_P2;PMS_P1;PMS_P2;Temp;Humidity;BMP_temperature;BMP_pressure;BME280_temperature;BME280_humidity;BME280_pressure;Samples;Min_cycle;Max_cycle;Signal;HPM_P1;HPM_P2
2022/11/19 00:01:28;;;;;;;1.03;1.03;;;;;5.70;95064.00;;;;5075738;28;20198;-57
2022/11/19 00:03:55;;;;;;;0.80;0.80;;;;;5.90;95059.00;;;;5075932;28;20216;-57
2022/11/19 00:06:26;;;;;;;1.97;0.83;;;;;5.80;95058.00;;;;5075670;28;20289;-56
2022/11/19 00:08:54;;;;;;;0.90;0.90;;;;;5.80;95059.00;;;;5093199;28;20217;-57
2022/11/19 00:14:06;;;;;;;0.77;0.77;;;;;5.70;95060.00;;;;5074475;28;20236;-60
2022/11/19 00:16:32;;;;;;;0.97;0.97;;;;;5.80;95063.00;;;;5093344;28;20256;-58
2022/11/19 00:18:59;;;;;;;0.70;0.70;;;;;5.80;95063.00;;;;5093120;28;20291;-58
2022/11/19 00:21:26;;;;;;;0.70;0.70;;;;;5.80;95056.00;;;;5093102;28;20190;-58
2022/11/19 00:23:54;;;;;;;0.90;0.90;;;;;5.90;95066.00;;;;5092960;28;20307;-55
2022/11/19 00:26:22;;;;;;;0.80;0.80;;;;;5.70;95061.00;;;;5093196;28;20227;-56
2022/11/19 00:28:51;;;;;;;0.83;0.83;;;;;5.60;95068.00;;;;5093802;28;20235;-56
2022/11/19 00:31:18;;;;;;;0.67;0.67;;;;;5.50;95054.00;;;;5096496;28;20206;-58
2022/11/19 00:33:46;;;;;;;0.70;0.70;;;;;5.40;95052.00;;;;5096117;28;20230;-57
2022/11/19 00:36:14;;;;;;;1.20;1.20;;;;;5.40;95057.00;;;;5096324;28;20277;-55
2022/11/19 00:38:41;;;;;;;1.90;1.37;;;;;5.30;95057.00;;;;5096424;28;20707;-56
2022/11/19 00:41:09;;;;;;;1.10;1.07;;;;;5.40;95057.00;;;;5096200;28;20631;-56
2022/11/19 00:43:49;;;;;;;0.67;0.67;;;;;5.40;95052.00;;;;5096239;28;20210;-56
2022/11/19 00:46:17;;;;;;;0.57;0.57;;;;;5.30;95045.00;;;;5096210;28;20259;-56
2022/11/19 00:48:44;;;;;;;0.60;0.60;;;;;5.30;95033.00;;;;5096226;28;20187;-55
2022/11/19 00:51:11;;;;;;;0.70;0.70;;;;;5.20;95038.00;;;;5096186;28;20602;-56
2022/11/19 00:53:38;;;;;;;0.60;0.60;;;;;5.20;95042.00;;;;5096010;28;20218;-56
2022/11/19 00:56:07;;;;;;;0.67;0.67;;;;;5.30;95037.00;;;;5095855;28;20256;-58
2022/11/19 00:58:34;;;;;;;0.60;0.60;;;;;5.30;95040.00;;;;5095936;28;20214;-55
2022/11/19 01:01:04;;;;;;;0.80;0.80;;;;;5.20;95036.00;;;;5095971;28;20253;-55
2022/11/19 01:03:33;;;;;;;0.50;0.50;;;;;5.20;95044.00;;;;5096056;28;20201;-60
2022/11/19 01:06:00;;;;;;;0.57;0.57;;;;;5.20;95036.00;;;;5095923;28;20263;-57
2022/11/19 01:08:27;;;;;;;0.90;0.90;;;;;5.30;95045.00;;;;5095990;28;20276;-57
2022/11/19 01:10:54;;;;;;;0.60;0.60;;;;;5.30;95045.00;;;;5095770;28;20190;-57
2022/11/19 01:13:36;;;;;;;0.60;0.60;;;;;5.40;95040.00;;;;5077769;28;20226;-58
2022/11/19 01:16:06;;;;;;;0.50;0.50;;;;;5.40;95044.00;;;;5095732;28;20203;-56
2022/11/19 01:18:33;;;;;;;0.50;0.50;;;;;5.40;95042.00;;;;5077968;28;20204;-56
2022/11/19 01:21:00;;;;;;;1.27;1.17;;;;;5.40;95038.00;;;;5095687;28;20196;-58
2022/11/19 01:23:27;;;;;;;0.60;0.60;;;;;5.40;95037.00;;;;5095592;28;20193;-57
2022/11/19 01:25:54;;;;;;;0.70;0.70;;;;;5.40;95043.00;;;;5078070;28;20213;-57
2022/11/19 01:28:21;;;;;;;0.70;0.70;;;;;5.40;95046.00;;;;5095585;28;20186;-56
2022/11/19 01:30:48;;;;;;;0.60;0.60;;;;;5.50;95048.00;;;;5095378;28;20232;-57
2022/11/19 01:33:15;;;;;;;0.90;0.90;;;;;5.60;95046.00;;;;5095433;28;20231;-56
2022/11/19 01:35:53;;;;;;;0.60;0.60;;;;;5.50;95041.00;;;;5095519;28;20229;-56
2022/11/19 01:38:20;;;;;;;0.70;0.70;;;;;5.60;95032.00;;;;5095435;28;20510;-58
2022/11/19 01:40:46;;;;;;;0.60;0.60;;;;;5.60;95043.00;;;;5095092;28;20220;-58
2022/11/19 01:43:13;;;;;;;0.83;0.83;;;;;5.60;95048.00;;;;5095262;28;20205;-57
2022/11/19 01:45:42;;;;;;;0.60;0.60;;;;;5.60;95045.00;;;;5095316;28;20260;-56
2022/11/19 01:48:13;;;;;;;0.63;0.63;;;;;5.60;95053.00;;;;5077385;28;20223;-56
2022/11/19 01:50:45;;;;;;;0.60;0.60;;;;;5.60;95055.00;;;;5077392;28;20269;-57
2022/11/19 01:53:13;;;;;;;0.70;0.70;;;;;5.60;95060.00;;;;5094976;28;20233;-56
2022/11/19 01:55:44;;;;;;;0.50;0.50;;;;;5.60;95060.00;;;;5095212;28;20592;-56
2022/11/19 01:58:14;;;;;;;0.50;0.50;;;;;5.60;95063.00;;;;5094974;28;20222;-56
2022/11/19 02:00:41;;;;;;;0.40;0.40;;;;;5.60;95065.00;;;;5077386;28;20233;-57
2022/11/19 02:03:08;;;;;;;0.53;0.53;;;;;5.70;95058.00;;;;5077304;28;20228;-56
2022/11/19 02:05:36;;;;;;;0.50;0.50;;;;;5.50;95059.00;;;;5095052;28;20214;-57
2022/11/19 02:08:08;;;;;;;0.50;0.50;;;;;5.40;95060.00;;;;5094815;28;20278;-57
2022/11/19 02:10:49;;;;;;;0.60;0.60;;;;;5.40;95059.00;;;;5094834;28;20215;-56
2022/11/19 02:13:25;;;;;;;0.50;0.50;;;;;5.40;95063.00;;;;5094921;28;20221;-56
2022/11/19 02:15:58;;;;;;;0.50;0.50;;;;;5.30;95060.00;;;;5077045;28;20243;-58
2022/11/19 02:18:38;;;;;;;0.50;0.50;;;;;5.30;95049.00;;;;5094682;28;20196;-56
2022/11/19 02:21:31;;;;;;;1.17;0.80;;;;;5.50;95055.00;;;;5094495;28;20214;-58
2022/11/19 02:24:31;;;;;;;0.73;0.73;;;;;5.50;95053.00;;;;5094697;28;20195;-58
2022/11/19 02:27:25;;;;;;;0.77;0.77;;;;;5.40;95050.00;;;;5075943;28;20301;-56
2022/11/19 02:30:04;;;;;;;0.50;0.50;;;;;5.30;95053.00;;;;5076851;28;20555;-56
2022/11/19 02:32:34;;;;;;;0.73;0.73;;;;;5.50;95058.00;;;;5094600;28;20218;-57
2022/11/19 02:35:13;;;;;;;0.60;0.60;;;;;5.40;95052.00;;;;5094384;28;20217;-58
2022/11/19 02:37:44;;;;;;;0.87;0.57;;;;;5.20;95064.00;;;;5076723;28;20669;-57
2022/11/19 02:40:18;;;;;;;0.50;0.50;;;;;5.20;95054.00;;;;5076874;28;20635;-57
2022/11/19 02:42:56;;;;;;;0.50;0.50;;;;;5.30;95057.00;;;;5094542;28;20216;-57
2022/11/19 02:45:28;;;;;;;0.60;0.60;;;;;5.40;95064.00;;;;5094335;28;20196;-56
2022/11/19 02:48:02;;;;;;;1.30;0.90;;;;;5.40;95062.00;;;;5094393;28;20200;-57
2022/11/19 02:50:33;;;;;;;1.57;0.93;;;;;5.30;95054.00;;;;5094251;28;20686;-56
2022/11/19 02:53:02;;;;;;;1.70;1.10;;;;;5.20;95061.00;;;;5093423;28;20218;-56
2022/11/19 02:55:29;;;;;;;0.50;0.50;;;;;5.40;95058.00;;;;5094075;28;20224;-56
2022/11/19 02:58:03;;;;;;;0.60;0.60;;;;;5.30;95061.00;;;;5076825;28;20202;-58
2022/11/19 03:06:17;;;;;;;0.50;0.50;;;;;5.20;95057.00;;;;5093933;28;20257;-56
2022/11/19 03:08:45;;;;;;;0.50;0.50;;;;;5.20;95061.00;;;;5094093;28;20217;-61
2022/11/19 03:11:22;;;;;;;0.50;0.50;;;;;5.20;95054.00;;;;5093821;28;20206;-55
2022/11/19 03:16:43;;;;;;;0.50;0.50;;;;;5.30;95064.00;;;;5076154;28;20207;-61
2022/11/19 03:19:22;;;;;;;0.80;0.80;;;;;5.50;95063.00;;;;5094040;28;20650;-57
2022/11/19 03:21:54;;;;;;;0.60;0.60;;;;;5.50;95065.00;;;;5094039;28;20223;-58
2022/11/19 03:24:27;;;;;;;0.60;0.60;;;;;5.50;95067.00;;;;5093789;28;20551;-60
2022/11/19 03:26:58;;;;;;;0.60;0.60;;;;;5.50;95065.00;;;;5093934;28;20191;-57
2022/11/19 03:29:27;;;;;;;0.70;0.70;;;;;5.50;95055.00;;;;5093635;28;20234;-56
2022/11/19 03:31:59;;;;;;;0.60;0.60;;;;;5.50;95064.00;;;;5075830;28;20205;-56
2022/11/19 03:34:29;;;;;;;0.90;0.90;;;;;5.70;95075.00;;;;5093498;28;20251;-56
2022/11/19 03:37:00;;;;;;;0.57;0.57;;;;;5.70;95062.00;;;;5093551;28;20194;-56
2022/11/19 03:39:28;;;;;;;0.60;0.60;;;;;5.70;95075.00;;;;5093261;28;20260;-56
2022/11/19 03:41:57;;;;;;;1.63;0.93;;;;;5.70;95075.00;;;;5093626;28;20197;-58
2022/11/19 03:44:28;;;;;;;0.50;0.50;;;;;5.70;95074.00;;;;5093483;28;20208;-56
2022/11/19 03:47:00;;;;;;;0.60;0.60;;;;;5.70;95087.00;;;;5075613;28;20252;-57
2022/11/19 03:49:31;;;;;;;0.70;0.70;;;;;5.60;95080.00;;;;5093494;28;20197;-56
2022/11/19 03:52:06;;;;;;;0.67;0.67;;;;;5.60;95083.00;;;;5075407;28;20231;-56
2022/11/19 03:54:35;;;;;;;0.60;0.60;;;;;5.50;95082.00;;;;5093306;28;20231;-57
2022/11/19 03:57:04;;;;;;;0.60;0.60;;;;;5.50;95077.00;;;;5093252;28;20286;-57
2022/11/19 03:59:31;;;;;;;0.60;0.60;;;;;5.50;95090.00;;;;5093238;28;20194;-56
2022/11/19 04:02:03;;;;;;;0.50;0.50;;;;;5.60;95086.00;;;;5093214;28;20213;-56
2022/11/19 04:04:36;;;;;;;0.60;0.60;;;;;5.60;95090.00;;;;5095271;28;20228;-56
2022/11/19 04:07:07;;;;;;;0.60;0.60;;;;;5.60;95082.00;;;;5079172;28;20197;-56
2022/11/19 04:09:34;;;;;;;0.60;0.60;;;;;5.60;95085.00;;;;5078895;28;20524;-57
2022/11/19 04:12:02;;;;;;;0.57;0.57;;;;;5.50;95077.00;;;;5096643;28;20191;-56
2022/11/19 04:14:28;;;;;;;0.70;0.70;;;;;5.50;95084.00;;;;5096571;28;20223;-55
2022/11/19 04:16:55;;;;;;;0.70;0.70;;;;;5.40;95081.00;;;;5078918;28;20216;-57
2022/11/19 04:19:23;;;;;;;0.60;0.60;;;;;5.50;95082.00;;;;5079043;28;20570;-56
2022/11/19 04:21:50;;;;;;;0.60;0.60;;;;;5.50;95086.00;;;;5096572;28;20526;-56
2022/11/19 04:24:17;;;;;;;0.50;0.50;;;;;5.50;95090.00;;;;5096413;28;20210;-56
2022/11/19 04:26:44;;;;;;;0.60;0.60;;;;;5.50;95084.00;;;;5096708;28;20202;-56
2022/11/19 04:29:11;;;;;;;0.70;0.70;;;;;5.60;95089.00;;;;5096493;28;20192;-58
2022/11/19 04:31:38;;;;;;;0.77;0.77;;;;;5.40;95086.00;;;;5096661;28;20673;-56
2022/11/19 04:34:07;;;;;;;0.50;0.50;;;;;5.30;95084.00;;;;5096297;28;20658;-55
2022/11/19 04:36:35;;;;;;;0.50;0.50;;;;;5.40;95092.00;;;;5096296;28;20230;-56
2022/11/19 04:39:02;;;;;;;0.97;0.97;;;;;5.40;95087.00;;;;5096327;28;20191;-56
2022/11/19 04:41:29;;;;;;;0.60;0.60;;;;;5.40;95085.00;;;;5096218;28;20210;-57
2022/11/19 04:43:58;;;;;;;0.50;0.50;;;;;5.40;95088.00;;;;5096346;28;20263;-56
2022/11/19 04:46:25;;;;;;;0.60;0.60;;;;;5.40;95098.00;;;;5078564;28;20253;-56
2022/11/19 04:48:54;;;;;;;0.50;0.50;;;;;5.40;95101.00;;;;5096286;28;20303;-55
2022/11/19 04:51:21;;;;;;;0.53;0.53;;;;;5.40;95097.00;;;;5096151;28;20194;-56
2022/11/19 04:53:49;;;;;;;0.50;0.50;;;;;5.40;95100.00;;;;5096203;28;20222;-57
2022/11/19 04:56:16;;;;;;;0.60;0.60;;;;;5.50;95089.00;;;;5078208;28;20259;-57
2022/11/19 04:58:42;;;;;;;0.63;0.63;;;;;5.40;95093.00;;;;5078161;28;20223;-57
2022/11/19 05:01:09;;;;;;;0.90;0.90;;;;;5.50;95085.00;;;;5096029;28;20196;-57
2022/11/19 05:03:36;;;;;;;0.50;0.50;;;;;5.50;95098.00;;;;5095832;28;20201;-56
2022/11/19 05:06:03;;;;;;;0.50;0.50;;;;;5.50;95089.00;;;;5096047;28;20198;-57
2022/11/19 05:08:29;;;;;;;0.60;0.60;;;;;5.50;95092.00;;;;5095889;28;20210;-56
2022/11/19 05:10:57;;;;;;;0.80;0.80;;;;;5.40;95098.00;;;;5095778;28;20623;-57
2022/11/19 05:13:26;;;;;;;0.60;0.60;;;;;5.60;95093.00;;;;5096021;28;20219;-62
2022/11/19 05:15:52;;;;;;;0.80;0.80;;;;;5.50;95094.00;;;;5095188;28;20214;-57
2022/11/19 05:18:19;;;;;;;5.23;1.47;;;;;5.50;95093.00;;;;5095963;28;20197;-57
2022/11/19 05:20:48;;;;;;;0.63;0.63;;;;;5.50;95095.00;;;;5095768;28;20229;-59
2022/11/19 05:23:15;;;;;;;0.60;0.60;;;;;5.50;95099.00;;;;5096096;28;20204;-57
2022/11/19 05:25:42;;;;;;;0.87;0.87;;;;;5.60;95090.00;;;;5095722;28;20526;-56
2022/11/19 05:28:12;;;;;;;0.50;0.50;;;;;5.60;95096.00;;;;5095892;28;20520;-56
2022/11/19 05:30:39;;;;;;;3.80;1.97;;;;;5.60;95094.00;;;;5095661;28;20193;-55
2022/11/19 05:33:05;;;;;;;0.70;0.70;;;;;5.50;95095.00;;;;5095397;28;20203;-56
2022/11/19 05:35:32;;;;;;;0.83;0.83;;;;;5.50;95086.00;;;;5095396;28;20184;-57
2022/11/19 05:37:59;;;;;;;0.60;0.60;;;;;5.50;95096.00;;;;5095250;28;20218;-56
2022/11/19 05:40:26;;;;;;;0.57;0.57;;;;;5.50;95093.00;;;;5095362;28;20210;-56
2022/11/19 05:42:53;;;;;;;0.70;0.70;;;;;5.50;95093.00;;;;5095245;28;20237;-56
2022/11/19 05:45:22;;;;;;;0.63;0.63;;;;;5.50;95087.00;;;;5095284;28;20212;-56
2022/11/19 05:47:54;;;;;;;0.53;0.53;;;;;5.60;95096.00;;;;5095289;28;20218;-56
2022/11/19 05:50:21;;;;;;;0.60;0.60;;;;;5.60;95099.00;;;;5095208;28;20202;-56
2022/11/19 05:52:48;;;;;;;0.50;0.50;;;;;5.60;95106.00;;;;5095101;28;20188;-56
2022/11/19 05:55:17;;;;;;;0.80;0.80;;;;;5.60;95109.00;;;;5077239;28;20299;-56
2022/11/19 05:57:44;;;;;;;0.60;0.60;;;;;5.60;95113.00;;;;5095132;28;20260;-57
2022/11/19 06:00:15;;;;;;;0.80;0.80;;;;;5.70;95109.00;;;;5077194;28;20351;-56
2022/11/19 06:02:42;;;;;;;0.50;0.50;;;;;5.60;95110.00;;;;5095056;28;20197;-57
2022/11/19 06:05:10;;;;;;;0.70;0.70;;;;;5.60;95111.00;;;;5095091;28;20199;-56
2022/11/19 06:07:36;;;;;;;0.50;0.50;;;;;5.70;95121.00;;;;5095028;28;20218;-56
2022/11/19 06:10:06;;;;;;;0.60;0.60;;;;;5.70;95114.00;;;;5094962;28;20292;-56
2022/11/19 06:12:33;;;;;;;0.73;0.73;;;;;5.70;95122.00;;;;5094908;28;20274;-58
2022/11/19 06:15:01;;;;;;;0.63;0.63;;;;;5.70;95114.00;;;;5094991;28;20238;-58
2022/11/19 06:17:27;;;;;;;0.80;0.80;;;;;5.70;95119.00;;;;5094727;28;20232;-57
2022/11/19 06:19:57;;;;;;;0.60;0.60;;;;;5.70;95117.00;;;;5094775;28;20205;-55
2022/11/19 06:22:24;;;;;;;0.70;0.70;;;;;5.70;95109.00;;;;5094618;28;20227;-55
2022/11/19 06:24:53;;;;;;;0.63;0.63;;;;;5.80;95122.00;;;;5094471;28;20216;-59
2022/11/19 06:27:20;;;;;;;0.70;0.70;;;;;5.70;95113.00;;;;5093432;28;20750;-55
2022/11/19 06:29:46;;;;;;;0.50;0.50;;;;;5.80;95117.00;;;;5094543;28;20256;-55
2022/11/19 06:32:16;;;;;;;0.57;0.57;;;;;5.70;95120.00;;;;5094855;28;20697;-54
2022/11/19 06:34:43;;;;;;;0.70;0.70;;;;;5.80;95130.00;;;;5076608;28;20241;-58
2022/11/19 06:37:10;;;;;;;0.70;0.70;;;;;5.80;95140.00;;;;5094507;28;20197;-56
2022/11/19 06:39:37;;;;;;;0.70;0.70;;;;;5.70;95138.00;;;;5076498;28;20221;-56
2022/11/19 06:44:49;;;;;;;0.70;0.70;;;;;5.70;95138.00;;;;5094401;28;20892;-56
2022/11/19 06:47:16;;;;;;;0.53;0.53;;;;;5.70;95143.00;;;;5094319;28;20206;-56
2022/11/19 06:49:43;;;;;;;0.50;0.50;;;;;5.70;95152.00;;;;5094204;28;20694;-56
2022/11/19 06:52:12;;;;;;;0.70;0.70;;;;;5.70;95154.00;;;;5094253;28;20210;-57
2022/11/19 06:54:39;;;;;;;0.57;0.57;;;;;5.80;95154.00;;;;5094122;28;20226;-56
2022/11/19 06:57:06;;;;;;;0.57;0.57;;;;;5.60;95156.00;;;;5094348;28;20665;-60
2022/11/19 06:59:35;;;;;;;1.20;1.20;;;;;5.60;95152.00;;;;5094275;28;20309;-56
2022/11/19 07:02:02;;;;;;;1.00;1.00;;;;;5.70;95150.00;;;;5094070;28;20246;-56
2022/11/19 07:04:28;;;;;;;0.80;0.80;;;;;5.60;95153.00;;;;5094153;28;20225;-56
2022/11/19 07:06:55;;;;;;;0.50;0.50;;;;;5.60;95148.00;;;;5094062;28;20200;-57
2022/11/19 07:09:23;;;;;;;0.50;0.50;;;;;5.70;95154.00;;;;5093872;28;20208;-58
2022/11/19 07:11:49;;;;;;;0.60;0.60;;;;;5.60;95151.00;;;;5093907;28;20632;-56
2022/11/19 07:14:18;;;;;;;0.53;0.53;;;;;5.60;95158.00;;;;5093603;28;20288;-57
2022/11/19 07:16:45;;;;;;;0.60;0.60;;;;;5.60;95159.00;;;;5094109;28;20206;-55
2022/11/19 07:19:12;;;;;;;0.57;0.57;;;;;5.60;95166.00;;;;5093867;28;20219;-57
2022/11/19 07:21:39;;;;;;;0.60;0.60;;;;;5.50;95157.00;;;;5093822;28;20197;-56
2022/11/19 07:24:08;;;;;;;0.50;0.50;;;;;5.60;95175.00;;;;5093657;28;20223;-57
2022/11/19 07:26:36;;;;;;;0.63;0.63;;;;;5.60;95170.00;;;;5076250;28;20313;-57
2022/11/19 07:29:05;;;;;;;0.67;0.67;;;;;5.80;95160.00;;;;5093782;28;20187;-57
2022/11/19 07:31:32;;;;;;;0.70;0.70;;;;;5.70;95166.00;;;;5093884;28;20195;-55
2022/11/19 07:33:59;;;;;;;0.60;0.60;;;;;5.80;95162.00;;;;5076244;28;20254;-54
2022/11/19 07:36:26;;;;;;;0.50;0.50;;;;;5.70;95172.00;;;;5075744;28;20226;-57
2022/11/19 07:38:53;;;;;;;0.67;0.67;;;;;5.70;95179.00;;;;5093892;28;20321;-56
2022/11/19 07:44:08;;;;;;;0.70;0.70;;;;;6.00;95189.00;;;;5093886;28;20226;-57
2022/11/19 07:46:35;;;;;;;0.60;0.60;;;;;6.00;95186.00;;;;5093449;28;20222;-56
2022/11/19 07:49:01;;;;;;;0.50;0.50;;;;;6.00;95196.00;;;;5093502;28;20204;-58
2022/11/19 07:51:28;;;;;;;1.27;1.27;;;;;6.00;95183.00;;;;5093573;28;20256;-56
2022/11/19 07:53:55;;;;;;;1.20;1.20;;;;;6.10;95180.00;;;;5075840;28;20664;-56
2022/11/19 07:56:22;;;;;;;0.70;0.70;;;;;5.90;95183.00;;;;5075477;28;20522;-58
2022/11/19 07:58:49;;;;;;;0.63;0.63;;;;;6.00;95190.00;;;;5093155;28;20225;-56
2022/11/19 08:01:19;;;;;;;0.70;0.70;;;;;5.90;95192.00;;;;5093439;28;20197;-55
2022/11/19 08:03:48;;;;;;;0.50;0.50;;;;;5.80;95190.00;;;;5093082;28;20225;-57
2022/11/19 08:06:16;;;;;;;0.60;0.60;;;;;5.80;95202.00;;;;5093137;28;20270;-55
2022/11/19 08:08:43;;;;;;;0.50;0.50;;;;;5.90;95187.00;;;;5075217;28;20206;-57
2022/11/19 08:11:11;;;;;;;0.60;0.60;;;;;5.80;95198.00;;;;5093308;28;20228;-56
2022/11/19 08:13:39;;;;;;;2.97;2.73;;;;;5.90;95192.00;;;;5092990;28;20216;-56
2022/11/19 08:16:08;;;;;;;1.10;1.10;;;;;5.90;95192.00;;;;5093119;28;20215;-55
2022/11/19 08:18:38;;;;;;;0.73;0.73;;;;;5.90;95202.00;;;;5093303;28;20191;-56
2022/11/19 08:21:06;;;;;;;0.63;0.63;;;;;5.80;95193.00;;;;5093242;28;20284;-54
2022/11/19 08:23:33;;;;;;;0.70;0.70;;;;;5.90;95190.00;;;;5075179;28;20199;-56
2022/11/19 08:26:00;;;;;;;0.73;0.73;;;;;6.00;95197.00;;;;5093218;28;20226;-56
2022/11/19 08:28:28;;;;;;;0.50;0.50;;;;;6.00;95206.00;;;;5092878;28;20200;-56
2022/11/19 08:31:04;;;;;;;0.50;0.50;;;;;6.10;95195.00;;;;5075059;28;20271;-56
2022/11/19 08:33:31;;;;;;;0.60;0.60;;;;;6.10;95197.00;;;;5092751;28;20214;-58
2022/11/19 08:35:58;;;;;;;0.53;0.53;;;;;6.30;95202.00;;;;5092865;28;20199;-56
2022/11/19 08:38:25;;;;;;;0.70;0.70;;;;;6.20;95197.00;;;;5092697;28;20213;-54
2022/11/19 08:42:58;;;;;;;0.60;0.60;;;;;6.40;95196.00;;;;5092762;28;20206;-56
2022/11/19 08:43:39;;;;;;;0.60;0.60;;;;;6.20;95198.00;;;;5092554;28;20230;-55
2022/11/19 08:46:06;;;;;;;0.63;0.63;;;;;6.30;95202.00;;;;5092643;28;20186;-55
2022/11/19 08:48:35;;;;;;;0.60;0.60;;;;;6.40;95209.00;;;;5092442;28;20237;-57
2022/11/19 08:51:03;;;;;;;0.73;0.73;;;;;6.50;95204.00;;;;5095425;28;20197;-58
2022/11/19 08:53:30;;;;;;;0.50;0.50;;;;;6.60;95196.00;;;;5096340;28;20220;-57
2022/11/19 08:55:57;;;;;;;0.80;0.80;;;;;6.60;95192.00;;;;5078206;28;20519;-57
2022/11/19 08:58:24;;;;;;;0.80;0.80;;;;;6.80;95203.00;;;;5096277;28;20262;-57
2022/11/19 09:00:50;;;;;;;0.97;0.97;;;;;6.90;95198.00;;;;5096000;28;20199;-58
2022/11/19 09:03:18;;;;;;;0.60;0.60;;;;;6.80;95216.00;;;;5078210;28;20247;-60
2022/11/19 09:05:45;;;;;;;0.70;0.70;;;;;6.80;95215.00;;;;5095930;28;20222;-53
2022/11/19 09:08:12;;;;;;;1.00;1.00;;;;;6.80;95223.00;;;;5078209;28;20542;-55
2022/11/19 09:10:40;;;;;;;0.50;0.50;;;;;6.90;95223.00;;;;5095796;28;20197;-55
2022/11/19 09:13:06;;;;;;;0.80;0.80;;;;;6.90;95222.00;;;;5095873;28;20256;-55
2022/11/19 09:15:34;;;;;;;0.70;0.70;;;;;6.90;95228.00;;;;5095552;28;20225;-54
2022/11/19 09:18:03;;;;;;;0.60;0.60;;;;;6.80;95228.00;;;;5095726;28;20334;-55
2022/11/19 09:20:30;;;;;;;0.70;0.70;;;;;6.70;95229.00;;;;5095699;28;20218;-57
2022/11/19 09:22:57;;;;;;;0.60;0.60;;;;;6.90;95242.00;;;;5095581;28;20221;-55
2022/11/19 09:25:24;;;;;;;0.60;0.60;;;;;7.10;95239.00;;;;5095557;28;20768;-55
2022/11/19 09:27:51;;;;;;;0.60;0.60;;;;;7.00;95239.00;;;;5095640;28;20225;-55
2022/11/19 09:30:18;;;;;;;0.57;0.57;;;;;7.10;95239.00;;;;5095755;28;20206;-57
2022/11/19 09:32:45;;;;;;;9.00;1.00;;;;;7.10;95239.00;;;;5095644;28;20199;-58
2022/11/19 09:35:15;;;;;;;0.50;0.50;;;;;6.90;95245.00;;;;5095563;28;20225;-55
2022/11/19 09:37:44;;;;;;;0.80;0.80;;;;;7.20;95239.00;;;;5077343;28;20330;-56
2022/11/19 09:40:18;;;;;;;0.63;0.63;;;;;7.20;95246.00;;;;5095405;28;20224;-56
2022/11/19 09:42:56;;;;;;;1.23;1.23;;;;;7.10;95243.00;;;;5095198;28;20190;-57
2022/11/19 09:45:36;;;;;;;1.13;1.13;;;;;7.20;95254.00;;;;5095182;28;20505;-56
2022/11/19 09:48:18;;;;;;;0.80;0.80;;;;;7.30;95247.00;;;;5095459;28;20655;-56
2022/11/19 09:50:50;;;;;;;0.60;0.60;;;;;7.40;95248.00;;;;5095148;28;20208;-56
2022/11/19 09:53:19;;;;;;;0.60;0.60;;;;;7.50;95264.00;;;;5077357;28;20224;-56
2022/11/19 09:55:48;;;;;;;0.60;0.60;;;;;7.40;95264.00;;;;5095098;28;20229;-57
2022/11/19 09:58:21;;;;;;;0.93;0.93;;;;;7.40;95250.00;;;;5095046;28;20648;-58
2022/11/19 10:00:50;;;;;;;0.60;0.60;;;;;7.40;95258.00;;;;5095096;28;20202;-56
2022/11/19 10:03:20;;;;;;;0.50;0.50;;;;;7.10;95261.00;;;;5094841;28;20193;-58
2022/11/19 10:06:01;;;;;;;0.60;0.60;;;;;7.40;95250.00;;;;5094937;28;20225;-56
2022/11/19 10:08:42;;;;;;;0.70;0.70;;;;;7.50;95260.00;;;;5094844;28;20194;-56
2022/11/19 10:11:21;;;;;;;0.90;0.90;;;;;7.50;95272.00;;;;5094840;28;20195;-56
2022/11/19 10:13:57;;;;;;;0.67;0.67;;;;;7.50;95255.00;;;;5094707;28;20240;-56
2022/11/19 10:16:35;;;;;;;0.50;0.50;;;;;7.40;95264.00;;;;5094767;28;20201;-57
2022/11/19 10:19:15;;;;;;;0.87;0.87;;;;;7.60;95253.00;;;;5094598;28;20217;-60
2022/11/19 10:21:53;;;;;;;0.80;0.80;;;;;7.80;95257.00;;;;5094838;28;20273;-55
2022/11/19 10:24:33;;;;;;;0.80;0.80;;;;;8.00;95253.00;;;;5076983;28;20232;-59
2022/11/19 10:27:09;;;;;;;1.10;1.10;;;;;7.80;95257.00;;;;5094799;28;20194;-59
2022/11/19 10:29:39;;;;;;;0.50;0.50;;;;;7.80;95260.00;;;;5094753;28;20550;-60
2022/11/19 10:32:23;;;;;;;0.70;0.70;;;;;7.90;95264.00;;;;5094499;28;20210;-58
2022/11/19 10:34:53;;;;;;;0.77;0.77;;;;;7.80;95261.00;;;;5094565;28;20320;-58
2022/11/19 10:37:22;;;;;;;0.67;0.67;;;;;7.60;95264.00;;;;5094839;28;20201;-56
2022/11/19 10:39:54;;;;;;;2.00;1.30;;;;;7.60;95264.00;;;;5094845;28;20219;-56
2022/11/19 10:42:23;;;;;;;0.70;0.70;;;;;7.60;95267.00;;;;5095090;28;20199;-56
2022/11/19 10:44:58;;;;;;;1.67;0.97;;;;;7.60;95265.00;;;;5094291;28;20592;-55
2022/11/19 10:47:32;;;;;;;0.70;0.70;;;;;7.40;95265.00;;;;5076760;28;20296;-54
2022/11/19 10:49:59;;;;;;;1.00;1.00;;;;;7.50;95265.00;;;;5094348;28;20206;-59
2022/11/19 10:52:30;;;;;;;0.60;0.60;;;;;7.60;95255.00;;;;5094315;28;20198;-55
2022/11/19 10:55:04;;;;;;;0.50;0.50;;;;;7.60;95258.00;;;;5094058;28;20286;-55
2022/11/19 10:57:33;;;;;;;0.60;0.60;;;;;7.70;95256.00;;;;5094189;28;20211;-55
2022/11/19 11:00:01;;;;;;;0.60;0.60;;;;;7.70;95252.00;;;;5094123;28;20222;-55
2022/11/19 11:02:35;;;;;;;0.60;0.60;;;;;7.70;95243.00;;;;5076442;28;20198;-55
2022/11/19 11:05:09;;;;;;;0.60;0.60;;;;;7.80;95249.00;;;;5094080;28;20692;-55
2022/11/19 11:07:51;;;;;;;0.73;0.73;;;;;7.70;95248.00;;;;5094015;28;20209;-55
2022/11/19 11:10:37;;;;;;;0.50;0.50;;;;;7.90;95241.00;;;;5093927;28;20205;-57
2022/11/19 11:16:10;;;;;;;0.60;0.60;;;;;7.90;95234.00;;;;5093843;28;20321;-55
2022/11/19 11:18:39;;;;;;;0.60;0.60;;;;;7.90;95240.00;;;;5093790;28;20623;-55
2022/11/19 11:21:10;;;;;;;0.50;0.50;;;;;8.10;95234.00;;;;5093741;28;20194;-60
2022/11/19 11:23:48;;;;;;;0.80;0.80;;;;;8.20;95234.00;;;;5075851;28;20214;-56
2022/11/19 11:26:21;;;;;;;0.50;0.50;;;;;7.90;95235.00;;;;5094067;28;20656;-55
2022/11/19 11:28:56;;;;;;;0.53;0.53;;;;;7.90;95229.00;;;;5093650;28;20511;-55
2022/11/19 11:31:32;;;;;;;0.50;0.50;;;;;7.90;95230.00;;;;5093617;28;20262;-57
2022/11/19 11:34:01;;;;;;;0.60;0.60;;;;;8.00;95224.00;;;;5093603;28;20206;-58
2022/11/19 11:36:30;;;;;;;3.60;0.97;;;;;7.90;95227.00;;;;5075675;28;20222;-57
2022/11/19 11:38:59;;;;;;;1.33;1.23;;;;;7.90;95228.00;;;;5093663;28;20194;-56
2022/11/19 11:41:37;;;;;;;0.83;0.83;;;;;7.90;95237.00;;;;5093377;28;20252;-56
2022/11/19 11:44:07;;;;;;;0.50;0.50;;;;;7.70;95236.00;;;;5093760;28;20235;-54
2022/11/19 11:46:37;;;;;;;0.60;0.60;;;;;7.50;95240.00;;;;5093395;28;20194;-56
2022/11/19 11:49:11;;;;;;;0.77;0.77;;;;;7.50;95232.00;;;;5093609;28;20673;-60
2022/11/19 11:51:38;;;;;;;0.60;0.60;;;;;7.20;95244.00;;;;5093450;28;20197;-57
2022/11/19 11:54:17;;;;;;;1.03;0.87;;;;;7.20;95234.00;;;;5075264;28;20275;-56
2022/11/19 11:56:43;;;;;;;0.53;0.53;;;;;7.30;95247.00;;;;5093438;28;20690;-58
2022/11/19 11:59:22;;;;;;;0.50;0.50;;;;;7.40;95241.00;;;;5093296;28;20213;-57
2022/11/19 12:01:54;;;;;;;0.60;0.60;;;;;7.40;95240.00;;;;5093422;28;20190;-57
2022/11/19 12:04:22;;;;;;;0.50;0.50;;;;;7.50;95243.00;;;;5093080;28;20240;-56
2022/11/19 12:06:59;;;;;;;0.60;0.60;;;;;7.60;95238.00;;;;5093058;28;20655;-57
2022/11/19 12:09:31;;;;;;;0.73;0.73;;;;;7.60;95245.00;;;;5092947;28;20213;-56
2022/11/19 12:12:04;;;;;;;0.60;0.60;;;;;7.60;95240.00;;;;5093179;28;20657;-56
2022/11/19 12:14:35;;;;;;;0.50;0.50;;;;;7.50;95241.00;;;;5092917;28;20237;-57
2022/11/19 12:17:26;;;;;;;0.50;0.50;;;;;7.50;95241.00;;;;5092992;28;20257;-61
2022/11/19 12:20:15;;;;;;;0.80;0.80;;;;;7.50;95238.00;;;;5092908;28;20222;-56
2022/11/19 12:23:08;;;;;;;1.07;1.07;;;;;7.60;95248.00;;;;5089500;28;20211;-56
2022/11/19 12:25:39;;;;;;;0.80;0.80;;;;;7.50;95244.00;;;;5095031;28;20218;-56
2022/11/19 12:28:34;;;;;;;0.60;0.60;;;;;7.50;95241.00;;;;5096701;28;20190;-56
2022/11/19 12:31:09;;;;;;;0.50;0.50;;;;;7.30;95242.00;;;;5078616;28;20199;-56
2022/11/19 12:33:51;;;;;;;0.70;0.70;;;;;7.40;95239.00;;;;5096343;28;20205;-56
2022/11/19 12:36:24;;;;;;;0.60;0.60;;;;;7.60;95240.00;;;;5096466;28;20220;-58
2022/11/19 12:39:00;;;;;;;0.53;0.53;;;;;7.30;95234.00;;;;5096321;28;20622;-56
2022/11/19 12:42:00;;;;;;;0.60;0.60;;;;;7.40;95239.00;;;;5096140;28;20212;-56
2022/11/19 12:44:38;;;;;;;0.80;0.80;;;;;7.40;95242.00;;;;5096240;28;20199;-55
2022/11/19 12:47:16;;;;;;;0.60;0.60;;;;;7.20;95245.00;;;;5096135;28;20259;-55
2022/11/19 12:49:59;;;;;;;0.60;0.60;;;;;7.20;95240.00;;;;5095990;28;20251;-55
2022/11/19 12:52:50;;;;;;;0.60;0.60;;;;;7.30;95248.00;;;;5078204;28;20203;-55
2022/11/19 12:55:25;;;;;;;0.60;0.60;;;;;7.20;95249.00;;;;5092575;28;20740;-56
2022/11/19 12:58:03;;;;;;;0.53;0.53;;;;;7.30;95248.00;;;;5095987;28;20272;-56
2022/11/19 13:00:31;;;;;;;0.80;0.80;;;;;7.30;95251.00;;;;5095905;28;20221;-57
2022/11/19 13:03:10;;;;;;;0.70;0.70;;;;;7.30;95260.00;;;;5096109;28;20259;-56
2022/11/19 13:05:46;;;;;;;0.60;0.60;;;;;7.20;95257.00;;;;5095881;28;20243;-56